Flight Track Log - Related Links

Times and Time Zones

All times are in EDT time to prevent confusion due to time zone crossing. See the SKW6195 flight status page for this flight to view local times or setup timezone preferences in your user account.

Time Position Orientation Groundspeed Altitude Reporting Facility
EDT Latitude Longitude Course Direction KTS MPH feet Rate Location/Type
Fri 01:24:55 PM 39.9175 -104.6858 12° North 206 237 6,600  Level Denver Center
Fri 01:25:57 PM 39.9828 -104.6728 North 222 255 8,500 1,742 Climbing Denver Center
Fri 01:26:59 PM 40.0583 -104.6594 North 271 312 10,200 1,824 Climbing Denver Center
Fri 01:27:00 PM 40.1373 -104.9414 346° North  Level Estimated
Fri 01:28:00 PM 40.2291 -105.0312 348° North  Level Estimated
Fri 01:28:02 PM 40.1461 -104.6811 349° North 298 343 12,300  Level Denver Center
Fri 01:29:00 PM 40.3208 -105.1214 346° North  Level Estimated
Fri 01:29:04 PM 40.2308 -104.7039 348° North 309 356 13,800  Level Denver Center
Fri 01:30:00 PM 40.4330 -105.0913 12° North  Level FlightAware
Fri 01:30:06 PM 40.3239 -104.7286 349° North 315 362 15,700  Level Denver Center
Fri 01:31:08 PM 40.4117 -104.7517 349° North 321 369 17,300 1,403 Climbing Denver Center
Fri 01:32:10 PM 40.5061 -104.7775 348° North 324 373 18,600 1,210 Climbing Denver Center
Fri 01:33:12 PM 40.5983 -104.8008 349° North 332 382 19,800 1,113 Climbing Denver Center
Fri 01:34:14 PM 40.6956 -104.8297 347° North 335 386 20,900 1,065 Climbing Denver Center
Fri 01:35:16 PM 40.7828 -104.8489 351° North 334 384 22,000 1,015 Climbing Denver Center
Fri 01:36:30 PM 40.8736 -104.8919 340° North 345 397 23,200 1,051 Climbing Denver Center
Fri 01:37:33 PM 40.9836 -104.9461 340° North 352 405 24,400 1,008 Climbing Denver Center
Fri 01:38:35 PM 41.0892 -104.9978 340° North 356 410 25,300 726 Climbing Denver Center
Fri 01:39:37 PM 41.1803 -105.0431 339° North 364 419 25,900 667 Climbing Denver Center
Fri 01:41:17 PM 41.3422 -105.1264 339° North 370 426 27,100 704 Climbing Salt Center
Fri 01:42:19 PM 41.4517 -105.1789 340° North 374 430 27,800 629 Climbing Salt Center
Fri 01:43:21 PM 41.5539 -105.2322 339° North 381 438 28,400 429 Climbing Salt Center
Fri 01:43:57 PM 41.5803 -105.2597 322° Northwest 380 437 28,500 429 Climbing Denver Center
Fri 01:44:59 PM 41.6611 -105.3839 311° West 393 452 29,100 576 Climbing Denver Center
Fri 01:46:02 PM 41.7525 -105.5247 311° West 392 451 29,700 528 Climbing Denver Center
Fri 01:47:04 PM 41.8203 -105.6303 311° West 391 450 30,200 532 Climbing Denver Center
Fri 01:48:06 PM 41.8897 -105.7369 311° West 394 453 30,800 677 Climbing Denver Center
Fri 01:49:08 PM 41.9678 -105.8592 311° West 389 448 31,600 581 Climbing Denver Center
Fri 01:50:10 PM 42.0325 -105.9608 311° West 378 435 32,000 194 Climbing Denver Center
Fri 01:51:12 PM 42.1083 -106.0825 310° West 378 435 32,000  Level Denver Center
Fri 01:52:14 PM 42.1633 -106.1711 310° West 385 443 32,000  Level Denver Center
Fri 01:53:16 PM 42.2550 -106.3133 311° West 392 451 32,000  Level Denver Center
Fri 01:54:18 PM 42.3233 -106.4239 310° West 398 458 32,000  Level Denver Center
Fri 01:55:21 PM 42.4050 -106.5511 311° West 401 461 32,000  Level Denver Center
Fri 01:56:23 PM 42.4736 -106.6636 310° West 404 465 32,000  Level Denver Center
Fri 01:57:25 PM 42.5550 -106.7931 311° West 404 465 32,000  Level Denver Center
Fri 01:58:28 PM 42.6242 -106.9061 310° West 406 467 32,000  Level Denver Center
Fri 01:59:29 PM 42.7042 -107.0367 310° West 403 464 32,000  Level Denver Center
Fri 02:00:31 PM 42.7744 -107.1500 310° West 408 470 32,000  Level Denver Center
Fri 02:01:33 PM 42.8475 -107.2681 310° West 411 473 32,000  Level Denver Center
Fri 02:02:35 PM 42.9208 -107.3911 309° West 410 472 32,000  Level Denver Center
Fri 02:03:37 PM 42.9931 -107.5106 310° West 411 473 32,000  Level Denver Center
Fri 02:04:39 PM 43.0797 -107.6522 310° West 416 479 32,000  Level Denver Center
Fri 02:05:41 PM 43.1544 -107.7789 309° West 416 479 32,000  Level Denver Center
Fri 02:07:08 PM 43.2561 -107.9508 309° West 416 479 32,000  Level Salt Center
Fri 02:08:10 PM 43.3294 -108.0728 310° West 415 478 32,000  Level Salt Center
Fri 02:09:12 PM 43.4017 -108.1978 309° West 418 481 32,000  Level Salt Center
Fri 02:10:14 PM 43.4767 -108.3200 310° West 417 480 32,000  Level Salt Center
Fri 02:11:16 PM 43.5669 -108.4228 320° Northwest 421 484 32,000  Level Salt Center
Fri 02:12:18 PM 43.6739 -108.5492 319° Northwest 422 486 32,000  Level Salt Center
Fri 02:13:20 PM 43.7636 -108.6558 319° Northwest 425 489 32,000  Level Salt Center
Fri 02:14:22 PM 43.8536 -108.7606 320° Northwest 423 487 32,000  Level Salt Center
Fri 02:15:24 PM 43.9442 -108.8683 319° Northwest 427 491 32,000  Level Salt Center
Fri 02:16:26 PM 44.0336 -108.9753 319° Northwest 426 490 32,000  Level Salt Center
Fri 02:17:28 PM 44.1236 -109.0825 319° Northwest 426 490 32,000  Level Salt Center
Fri 02:18:30 PM 44.2322 -109.2131 319° Northwest 429 494 32,000  Level Salt Center
Fri 02:19:32 PM 44.3214 -109.3211 319° Northwest 425 489 32,000  Level Salt Center
Fri 02:20:34 PM 44.4108 -109.4314 319° Northwest 427 491 32,000  Level Salt Center
Fri 02:21:36 PM 44.5097 -109.5503 319° Northwest 427 491 32,000  Level Salt Center
Fri 02:22:38 PM 44.5900 -109.6500 319° Northwest 428 493 32,000  Level Salt Center
Fri 02:23:40 PM 44.6803 -109.7608 319° Northwest 431 496 32,000 -919 Level Salt Center
Fri 02:24:42 PM 44.7817 -109.8861 319° Northwest 433 498 30,100 -2,323 Descending Salt Center
Fri 02:25:44 PM 44.8681 -109.9931 319° Northwest 432 497 27,200 -3,048 Descending Salt Center
Fri 02:26:46 PM 44.9667 -110.1150 319° Northwest 424 488 23,800 -3,000 Descending Salt Center
Fri 02:27:48 PM 45.0486 -110.2161 319° Northwest 411 473 21,000 -2,613 Descending Salt Center
Fri 02:28:50 PM 45.1339 -110.3233 318° Northwest 389 448 18,400 -2,468 Descending Salt Center
Fri 02:29:52 PM 45.2094 -110.4186 318° Northwest 365 420 15,900 -1,632 Descending Salt Center
Fri 02:30:55 PM 45.2872 -110.5186 318° Northwest 334 384 15,000 -432 Descending Salt Center
Fri 02:31:57 PM 45.3533 -110.6017 319° Northwest 311 358 15,000  Level Salt Center
Fri 02:32:59 PM 45.4300 -110.7008 318° Northwest 345 397 15,000  Level Salt Center
Fri 02:34:01 PM 45.5022 -110.8006 316° Northwest 355 409 15,000 -532 Level Salt Center
Fri 02:35:03 PM 45.5606 -110.9194 305° West 359 413 13,900 -1,113 Descending Salt Center
Fri 02:36:05 PM 45.6178 -111.0317 306° West 345 397 12,700 -1,258 Descending Salt Center
Fri 02:37:07 PM 45.6728 -111.1350 307° West 325 374 11,300 -1,113 Descending Salt Center
Fri 02:38:09 PM 45.7225 -111.2231 309° West 278 320 10,400 -1,065 Descending Salt Center
Fri 02:39:11 PM 45.7728 -111.2903 317° Northwest 237 273 9,100 -1,403 Descending Salt Center
Fri 02:40:13 PM 45.8233 -111.3036 350° North 213 245 7,500 -1,500 Descending Salt Center
Fri 02:41:15 PM 45.8381 -111.2392 72° East 165 190 6,000 -1,210 Descending Salt Center
Fri 02:42:17 PM 45.8075 -111.1942 134° Southeast 157 181 5,000 -968 Descending Salt Center

Login

Don't have an account? Register now (free) for customized features, flight alerts, and more!